Southern Tiare — E5U2082 — position and weather

sailwx.info

Track history (hours):
 
Tides and Currents Weather Stations Pressure Air Temp Water Temp Dewpoint Dewpoint Depression Visibility Wind Speed Wind Dir Waves Ship Positions

Southern Tiare

Last reported at 2014-Sep-01 18:30 UTC. Time now 2014-Sep-03 07:26 UTC.
Position S 36°29' E 175°13'.

Length 67 m; draft 3.3 m.

Type: Cargo ship. MMSI: 518132000.

Date/timePositionNaut miles runAvg speedWind from/ knotsBaromVisibWave heightAir tempDewpointWater temp
2014-Sep-01 18:30S 36°29' E 175°13'1010.7
2014-Sep-01 17:33S 36°35' E 175°02'1010.3
2014-Sep-01 16:33S 36°42' E 174°53'10 8.6
2014-Sep-01 15:26S 36°50' E 174°47'0 0.2
2014-Sep-01 13:15S 36°51' E 174°47'3 4.4
2014-Sep-01 12:33S 36°48' E 174°50'6 6.1
2014-Sep-01 11:33S 36°43' E 174°52'8 8.2
2014-Sep-01 10:33S 36°36' E 174°57'8 7.8
2014-Sep-01 09:33S 36°28' E 174°57'9 9.1
2014-Sep-01 08:33S 36°19' E 174°57'  
2014-Aug-24 09:08S 36°13' E 174°56'711.2
2014-Aug-24 08:33S 36°20' E 174°57'1111.2
2014-Aug-24 07:33S 36°31' E 174°57'18 9.2
2014-Aug-24 05:33S 36°48' E 174°49'3 0.3
2014-Aug-23 20:26S 36°51' E 174°47'0 0.1
2014-Aug-23 19:32S 36°51' E 174°47'0 0.0
2014-Aug-23 00:31S 36°51' E 174°47'7 6.6
2014-Aug-22 23:31S 36°45' E 174°50'1010.6
2014-Aug-22 22:33S 36°37' E 174°59'  
Track history (hours):
 
Tides and Currents Weather Stations Pressure Air Temp Water Temp Dewpoint Dewpoint Depression Visibility Wind Speed Wind Dir Waves Ship Positions

Southern Tiare

Last reported at 2014-Sep-01 18:30 UTC. Time now 2014-Sep-03 07:26 UTC.
Position S 36°29' E 175°13'.

Length 67 m; draft 3.3 m.

Type: Cargo ship. MMSI: 518132000.

Date/timePositionNaut miles runAvg speedWind from/ knotsBaromVisibWave heightAir tempDewpointWater temp
2014-Sep-01 18:30S 36°29' E 175°13'1010.7
2014-Sep-01 17:33S 36°35' E 175°02'1010.3
2014-Sep-01 16:33S 36°42' E 174°53'10 8.6
2014-Sep-01 15:26S 36°50' E 174°47'0 0.2
2014-Sep-01 13:15S 36°51' E 174°47'3 4.4
2014-Sep-01 12:33S 36°48' E 174°50'6 6.1
2014-Sep-01 11:33S 36°43' E 174°52'8 8.2
2014-Sep-01 10:33S 36°36' E 174°57'8 7.8
2014-Sep-01 09:33S 36°28' E 174°57'9 9.1
2014-Sep-01 08:33S 36°19' E 174°57'  
2014-Aug-24 09:08S 36°13' E 174°56'711.2
2014-Aug-24 08:33S 36°20' E 174°57'1111.2
2014-Aug-24 07:33S 36°31' E 174°57'18 9.2
2014-Aug-24 05:33S 36°48' E 174°49'3 0.3
2014-Aug-23 20:26S 36°51' E 174°47'0 0.1
2014-Aug-23 19:32S 36°51' E 174°47'0 0.0
2014-Aug-23 00:31S 36°51' E 174°47'7 6.6
2014-Aug-22 23:31S 36°45' E 174°50'1010.6
2014-Aug-22 22:33S 36°37' E 174°59'  

Dump ship's entire track history